createdAt,value
2023-05-19T00:00:16.373Z,38.8
2023-05-19T00:05:16.392Z,39.2
2023-05-19T00:10:16.428Z,39.7
2023-05-19T00:15:16.342Z,40.0
2023-05-19T00:20:16.518Z,40.2
2023-05-19T00:25:16.379Z,40.0
2023-05-19T00:30:16.420Z,39.9
2023-05-19T00:35:16.344Z,39.9
2023-05-19T00:40:16.635Z,40.7
2023-05-19T00:45:16.459Z,40.7
2023-05-19T00:50:16.441Z,41.0
2023-05-19T00:55:16.453Z,41.0
2023-05-19T01:00:16.369Z,41.0
2023-05-19T01:05:16.430Z,40.8
2023-05-19T01:10:16.540Z,41.0
2023-05-19T01:15:16.442Z,41.2
2023-05-19T01:20:16.398Z,40.6
2023-05-19T01:25:16.503Z,41.4
2023-05-19T01:30:16.453Z,41.6
2023-05-19T01:35:16.534Z,41.6
2023-05-19T01:40:16.532Z,41.9
2023-05-19T01:45:16.626Z,41.5
2023-05-19T01:50:16.572Z,41.8
2023-05-19T01:55:16.580Z,41.7
2023-05-19T02:00:16.932Z,42.5
2023-05-19T02:05:16.555Z,42.5
2023-05-19T02:10:16.601Z,42.3
2023-05-19T02:15:16.619Z,42.9
2023-05-19T02:20:16.708Z,42.3
2023-05-19T02:25:16.662Z,42.3
2023-05-19T02:30:16.761Z,42.7
2023-05-19T02:35:16.674Z,42.7
2023-05-19T02:40:16.617Z,43.0
2023-05-19T02:45:16.617Z,42.4
2023-05-19T02:50:16.651Z,42.2
2023-05-19T02:55:16.671Z,42.1
2023-05-19T03:00:16.661Z,42.0
2023-05-19T03:05:16.796Z,42.0
2023-05-19T03:10:16.746Z,41.9
2023-05-19T03:15:16.796Z,42.4
2023-05-19T03:20:16.775Z,41.9
2023-05-19T03:25:16.742Z,41.9
2023-05-19T03:30:16.925Z,41.8
2023-05-19T03:35:16.704Z,42.1
2023-05-19T03:40:16.868Z,42.0
2023-05-19T03:45:16.850Z,41.9
2023-05-19T03:50:16.716Z,41.8
2023-05-19T03:55:16.883Z,42.2
2023-05-19T04:00:15.766Z,42.1
2023-05-19T04:05:15.860Z,42.0
2023-05-19T04:10:15.811Z,41.9
2023-05-19T04:15:15.809Z,41.9
2023-05-19T04:20:15.800Z,41.8
2023-05-19T04:25:15.833Z,41.7
2023-05-19T04:30:18.363Z,41.6
2023-05-19T04:35:15.946Z,41.5
2023-05-19T04:40:15.894Z,41.4
2023-05-19T04:45:15.856Z,41.8
2023-05-19T04:50:15.940Z,41.8
2023-05-19T04:55:16.002Z,41.9
2023-05-19T05:00:15.910Z,41.9
2023-05-19T05:05:15.947Z,41.7
2023-05-19T05:10:15.954Z,41.7
2023-05-19T05:15:15.970Z,41.8
2023-05-19T05:20:15.974Z,41.7
2023-05-19T05:25:16.138Z,41.7
2023-05-19T05:30:15.901Z,41.7
2023-05-19T05:35:15.970Z,41.5
2023-05-19T05:40:15.981Z,41.4
2023-05-19T05:45:16.082Z,40.9
2023-05-19T05:50:16.004Z,40.9
2023-05-19T05:55:15.959Z,40.9
2023-05-19T06:00:16.050Z,40.9
2023-05-19T06:05:15.993Z,41.3
2023-05-19T06:10:16.034Z,40.9
2023-05-19T06:15:16.068Z,40.9
2023-05-19T06:20:16.155Z,40.7
2023-05-19T06:25:16.129Z,41.0
2023-05-19T06:30:16.093Z,41.4
2023-05-19T06:35:16.186Z,41.3
2023-05-19T06:40:16.069Z,41.4
2023-05-19T06:45:16.130Z,41.4
2023-05-19T06:50:16.237Z,41.5
2023-05-19T06:55:16.261Z,41.3
2023-05-19T07:00:18.306Z,41.2
2023-05-19T07:05:16.284Z,41.1
2023-05-19T07:10:16.459Z,41.1
2023-05-19T07:15:16.205Z,40.8
2023-05-19T07:20:16.158Z,40.8
2023-05-19T07:25:16.405Z,40.5
2023-05-19T07:30:16.205Z,40.5
2023-05-19T07:35:16.472Z,40.5
2023-05-19T07:40:16.286Z,40.1
2023-05-19T07:45:16.240Z,40.5
2023-05-19T07:50:16.297Z,40.1
2023-05-19T07:55:16.394Z,40.1
2023-05-19T08:00:16.195Z,40.3
2023-05-19T08:05:16.238Z,40.7
2023-05-19T08:10:16.453Z,40.9
2023-05-19T08:15:16.477Z,41.1
2023-05-19T08:20:16.338Z,41.4
2023-05-19T08:25:16.485Z,41.4
2023-05-19T08:30:16.370Z,41.8
2023-05-19T08:35:16.451Z,42.1
2023-05-19T08:40:16.410Z,42.1
2023-05-19T08:45:16.387Z,42.4
2023-05-19T08:50:16.428Z,42.4
2023-05-19T08:55:16.365Z,42.4
2023-05-19T09:00:16.510Z,42.9
2023-05-19T09:05:16.409Z,42.9
2023-05-19T09:10:16.523Z,43.3
2023-05-19T09:15:16.383Z,43.4
2023-05-19T09:20:16.456Z,43.3
2023-05-19T09:25:16.479Z,43.2
2023-05-19T09:30:16.450Z,43.2
2023-05-19T09:35:16.490Z,43.3
2023-05-19T09:40:16.544Z,43.4
2023-05-19T09:45:16.472Z,43.5
2023-05-19T09:50:16.473Z,43.5
2023-05-19T09:55:16.478Z,43.7
2023-05-19T10:00:17.500Z,43.7
2023-05-19T10:05:16.697Z,44.2
2023-05-19T10:10:16.799Z,44.4
2023-05-19T10:15:16.497Z,44.7
2023-05-19T10:20:16.789Z,44.7
2023-05-19T10:25:16.605Z,44.6
2023-05-19T10:30:16.880Z,44.5
2023-05-19T10:35:16.698Z,44.7
2023-05-19T10:40:16.705Z,44.9
2023-05-19T10:45:16.869Z,45.1
2023-05-19T10:50:16.645Z,45.3
2023-05-19T10:55:16.673Z,45.5
2023-05-19T11:00:16.514Z,45.8
2023-05-19T11:05:16.803Z,45.5
2023-05-19T11:10:16.622Z,45.7
2023-05-19T11:15:16.824Z,46.0
2023-05-19T11:20:16.710Z,46.1
2023-05-19T11:25:16.875Z,46.3
2023-05-19T11:30:16.858Z,46.5
2023-05-19T11:35:16.775Z,46.7
2023-05-19T11:40:16.634Z,46.5
2023-05-19T11:45:16.777Z,46.5
2023-05-19T11:50:16.852Z,46.4
2023-05-19T11:55:16.738Z,46.6
2023-05-19T12:00:16.720Z,46.5
2023-05-19T12:05:16.847Z,46.6
2023-05-19T12:10:16.760Z,46.7
2023-05-19T12:15:16.944Z,46.6
2023-05-19T12:20:16.892Z,46.8
2023-05-19T12:25:16.850Z,47.1
2023-05-19T12:30:16.815Z,46.9
2023-05-19T12:35:16.827Z,47.2
2023-05-19T12:40:16.895Z,47.2
2023-05-19T12:45:16.799Z,46.9
2023-05-19T12:50:16.869Z,47.0
2023-05-19T12:55:16.908Z,46.8
2023-05-19T13:00:17.059Z,47.0
2023-05-19T13:05:16.883Z,46.9
2023-05-19T13:10:16.889Z,46.8
2023-05-19T13:15:16.984Z,46.5
2023-05-19T13:20:16.985Z,47.1
2023-05-19T13:25:16.914Z,46.7
2023-05-19T13:30:17.003Z,47.3
2023-05-19T13:35:16.952Z,47.0
2023-05-19T13:40:16.946Z,46.8
2023-05-19T13:45:16.989Z,47.1
2023-05-19T13:50:16.987Z,47.0
2023-05-19T13:55:16.985Z,47.4
2023-05-19T14:00:16.997Z,46.8
2023-05-19T14:05:16.902Z,46.4
2023-05-19T14:10:17.153Z,46.1
2023-05-19T14:15:17.069Z,45.8
2023-05-19T14:20:17.029Z,47.1
2023-05-19T14:25:17.034Z,46.6
2023-05-19T14:30:16.994Z,46.4
2023-05-19T14:35:17.321Z,46.5
2023-05-19T14:40:17.115Z,46.6
2023-05-19T14:45:17.280Z,46.8
2023-05-19T14:50:17.042Z,46.7
2023-05-19T14:55:17.329Z,47.4
2023-05-19T15:00:17.144Z,46.8
2023-05-19T15:05:17.117Z,47.5
2023-05-19T15:10:17.198Z,47.8
2023-05-19T15:15:17.210Z,47.4
2023-05-19T15:20:17.284Z,47.1
2023-05-19T15:25:17.198Z,47.2
2023-05-19T15:30:17.225Z,47.1
2023-05-19T15:35:17.327Z,47.1
2023-05-19T15:40:17.557Z,47.8
2023-05-19T15:45:17.510Z,47.4
2023-05-19T15:50:17.164Z,47.3
2023-05-19T15:55:17.260Z,47.2
2023-05-19T16:00:17.241Z,47.2
2023-05-19T16:05:17.322Z,47.1
2023-05-19T16:10:17.277Z,46.8
2023-05-19T16:15:17.273Z,48.5
2023-05-19T16:20:17.333Z,47.6
2023-05-19T16:25:17.369Z,47.4
2023-05-19T16:30:17.254Z,46.9
2023-05-19T16:35:17.312Z,46.9
2023-05-19T16:40:17.275Z,46.9
2023-05-19T16:45:17.311Z,46.7
2023-05-19T16:50:17.370Z,46.8
2023-05-19T16:55:17.315Z,47.3
2023-05-19T17:00:17.329Z,47.5
2023-05-19T17:05:17.594Z,48.1
2023-05-19T17:10:17.334Z,47.6
2023-05-19T17:15:17.502Z,48.0
2023-05-19T17:20:17.351Z,48.5
2023-05-19T17:25:15.381Z,48.3
2023-05-19T17:30:15.648Z,48.8
2023-05-19T17:35:15.496Z,48.4
2023-05-19T17:40:15.537Z,49.1
2023-05-19T17:45:15.393Z,49.2
2023-05-19T17:50:15.486Z,49.3
2023-05-19T17:55:15.493Z,48.9
2023-05-19T18:00:15.632Z,49.2
2023-05-19T18:05:15.582Z,49.8
2023-05-19T18:10:15.842Z,50.2
2023-05-19T18:15:15.631Z,49.7
2023-05-19T18:20:15.765Z,49.8
2023-05-19T18:25:15.504Z,50.0
2023-05-19T18:30:15.541Z,49.8
2023-05-19T18:35:15.554Z,49.9
2023-05-19T18:40:15.541Z,49.6
2023-05-19T18:45:15.680Z,50.0
2023-05-19T18:50:15.600Z,50.1
2023-05-19T18:55:15.590Z,50.3
2023-05-19T19:00:15.730Z,50.4
2023-05-19T19:05:15.688Z,50.5
2023-05-19T19:10:15.595Z,50.7
2023-05-19T19:15:15.586Z,49.7
2023-05-19T19:20:15.611Z,50.6
2023-05-19T19:25:15.704Z,50.5
2023-05-19T19:30:15.618Z,51.0
2023-05-19T19:35:15.798Z,51.0
2023-05-19T19:40:15.842Z,51.1
2023-05-19T19:45:16.009Z,50.8
2023-05-19T19:50:15.699Z,50.9
2023-05-19T19:55:15.779Z,51.0
2023-05-19T20:00:15.739Z,50.7
2023-05-19T20:05:15.777Z,51.8
2023-05-19T20:10:15.727Z,51.5
2023-05-19T20:15:15.695Z,51.4
2023-05-19T20:20:15.743Z,51.4
2023-05-19T20:25:16.001Z,51.4
2023-05-19T20:30:15.744Z,51.6
2023-05-19T20:35:15.895Z,51.7
2023-05-19T20:40:15.851Z,51.7
2023-05-19T20:45:15.839Z,51.6
2023-05-19T20:50:15.902Z,51.6
2023-05-19T20:55:15.822Z,51.7
2023-05-19T21:00:15.893Z,52.0
2023-05-19T21:05:16.005Z,51.9
2023-05-19T21:10:15.960Z,51.2
2023-05-19T21:15:15.866Z,50.5
2023-05-19T21:20:16.110Z,50.5
2023-05-19T21:25:15.873Z,50.0
2023-05-19T21:30:15.968Z,49.9
2023-05-19T21:35:16.063Z,49.6
2023-05-19T21:40:16.005Z,49.7
2023-05-19T21:45:15.964Z,49.8
2023-05-19T21:50:15.961Z,51.2
2023-05-19T21:55:16.002Z,51.4
2023-05-19T22:00:16.194Z,51.6
2023-05-19T22:05:16.022Z,51.6
2023-05-19T22:10:16.256Z,51.5
2023-05-19T22:15:16.142Z,51.9
2023-05-19T22:20:15.978Z,52.1
2023-05-19T22:25:15.973Z,51.8
2023-05-19T22:30:16.060Z,51.6
2023-05-19T22:35:16.053Z,51.5
2023-05-19T22:40:15.988Z,51.2
2023-05-19T22:45:15.981Z,51.4
2023-05-19T22:50:16.258Z,51.6
2023-05-19T22:55:16.324Z,50.9
2023-05-19T23:00:16.119Z,50.1
2023-05-19T23:05:16.557Z,49.1
2023-05-19T23:10:16.195Z,49.5
2023-05-19T23:15:16.056Z,49.0
2023-05-19T23:20:16.149Z,49.1
2023-05-19T23:25:16.220Z,49.5
2023-05-19T23:30:16.116Z,49.0
2023-05-19T23:35:16.294Z,49.2
2023-05-19T23:40:16.204Z,48.9
2023-05-19T23:45:16.173Z,48.7
2023-05-19T23:50:16.259Z,48.9
2023-05-19T23:55:16.181Z,48.7
